createdAt,value
2022-08-02T00:00:41.328Z,5.53
2022-08-02T00:03:09.381Z,6.10
2022-08-02T00:05:37.363Z,4.32
2022-08-02T00:08:06.962Z,7.20
2022-08-02T00:10:35.209Z,4.00
2022-08-02T00:13:03.218Z,6.03
2022-08-02T00:15:31.121Z,7.45
2022-08-02T00:17:59.187Z,5.32
2022-08-02T00:20:27.130Z,4.55
2022-08-02T00:22:55.122Z,5.50
2022-08-02T00:25:24.458Z,3.42
2022-08-02T00:27:52.585Z,5.65
2022-08-02T00:30:20.752Z,8.65
2022-08-02T00:32:48.725Z,5.07
2022-08-02T00:35:16.647Z,5.05
2022-08-02T00:37:44.896Z,3.55
2022-08-02T00:40:13.713Z,4.20
2022-08-02T00:42:44.249Z,4.25
2022-08-02T00:45:12.859Z,4.50
2022-08-02T00:47:42.093Z,6.43
2022-08-02T00:50:11.007Z,6.40
2022-08-02T00:52:38.993Z,4.20
2022-08-02T00:55:07.769Z,4.93
2022-08-02T00:57:37.020Z,4.25
2022-08-02T01:00:08.260Z,7.00
2022-08-02T01:02:36.289Z,8.10
2022-08-02T01:05:04.609Z,5.28
2022-08-02T01:07:32.555Z,4.80
2022-08-02T01:10:01.006Z,3.15
2022-08-02T01:12:29.298Z,3.38
2022-08-02T01:15:01.267Z,6.47
2022-08-02T01:17:37.077Z,6.50
2022-08-02T01:20:13.235Z,4.32
2022-08-02T01:23:01.953Z,3.95
2022-08-02T01:25:46.136Z,4.57
2022-08-02T01:28:34.174Z,4.63
2022-08-02T01:31:07.707Z,2.25
2022-08-02T01:33:41.153Z,3.13
2022-08-02T01:36:12.911Z,5.97
2022-08-02T01:38:46.128Z,6.25
2022-08-02T01:41:19.304Z,5.80
2022-08-02T01:43:51.074Z,6.07
2022-08-02T01:46:21.404Z,4.75
2022-08-02T01:48:51.496Z,7.13
2022-08-02T01:51:42.991Z,7.57
2022-08-02T01:54:14.427Z,4.90
2022-08-02T01:56:44.087Z,5.15
2022-08-02T01:59:17.884Z,4.57
2022-08-02T02:01:49.190Z,4.00
2022-08-02T02:04:18.354Z,4.68
2022-08-02T02:06:47.549Z,3.05
2022-08-02T02:09:16.748Z,6.03
2022-08-02T02:12:10.073Z,3.50
2022-08-02T02:14:37.229Z,5.13
2022-08-02T02:17:06.674Z,4.85
2022-08-02T02:19:37.244Z,6.40
2022-08-02T02:22:05.400Z,3.13
2022-08-02T02:24:35.295Z,5.18
2022-08-02T02:27:06.564Z,3.83
2022-08-02T02:29:36.972Z,7.07
2022-08-02T02:32:07.330Z,4.45
2022-08-02T02:34:39.084Z,3.88
2022-08-02T02:37:14.564Z,3.90
2022-08-02T02:39:45.046Z,4.30
2022-08-02T02:42:15.860Z,5.40
2022-08-02T02:44:47.375Z,5.75
2022-08-02T02:47:16.955Z,6.07
2022-08-02T02:49:47.594Z,6.35
2022-08-02T02:52:18.090Z,2.85
2022-08-02T02:54:49.846Z,5.13
2022-08-02T02:57:18.284Z,2.95
2022-08-02T02:59:49.260Z,4.25
2022-08-02T03:02:19.523Z,3.30
2022-08-02T03:04:55.652Z,3.97
2022-08-02T03:07:26.136Z,3.72
2022-08-02T03:09:55.067Z,4.40
2022-08-02T03:12:30.581Z,3.20
2022-08-02T03:15:03.622Z,5.57
2022-08-02T03:17:42.533Z,5.18
2022-08-02T03:20:13.554Z,4.50
2022-08-02T03:22:42.081Z,2.60
2022-08-02T03:25:11.091Z,3.60
2022-08-02T03:27:39.399Z,6.65
2022-08-02T03:30:11.596Z,3.70
2022-08-02T03:32:41.721Z,3.58
2022-08-02T03:35:12.622Z,5.20
2022-08-02T03:37:41.957Z,6.18
2022-08-02T03:40:12.495Z,4.30
2022-08-02T03:42:41.594Z,4.22
2022-08-02T03:45:15.789Z,3.38
2022-08-02T03:47:44.826Z,4.97
2022-08-02T03:50:13.893Z,5.65
2022-08-02T03:52:43.605Z,5.75
2022-08-02T03:55:13.771Z,4.85
2022-08-02T03:57:45.248Z,2.97
2022-08-02T04:00:22.567Z,1.95
2022-08-02T04:02:51.243Z,4.70
2022-08-02T04:05:19.359Z,7.18
2022-08-02T04:08:02.753Z,5.22
2022-08-02T04:10:57.744Z,2.33
2022-08-02T04:13:35.966Z,3.05
2022-08-02T04:16:13.493Z,5.88
2022-08-02T04:18:46.343Z,8.50
2022-08-02T04:21:18.277Z,3.60
2022-08-02T04:23:48.563Z,2.40
2022-08-02T04:26:17.830Z,3.78
2022-08-02T04:28:46.716Z,6.60
2022-08-02T04:31:17.701Z,4.18
2022-08-02T04:33:46.276Z,4.15
2022-08-02T04:36:15.292Z,5.47
2022-08-02T04:38:59.168Z,3.50
2022-08-02T04:41:40.987Z,6.82
2022-08-02T04:44:13.197Z,4.75
2022-08-02T04:46:44.128Z,2.33
2022-08-02T04:49:12.756Z,4.82
2022-08-02T04:51:43.552Z,6.90
2022-08-02T04:54:12.703Z,7.32
2022-08-02T04:56:41.074Z,6.40
2022-08-02T04:59:09.630Z,4.15
2022-08-02T05:01:37.643Z,5.45
2022-08-02T05:04:07.252Z,6.35
2022-08-02T05:06:35.359Z,8.40
2022-08-02T05:09:03.284Z,5.85
2022-08-02T05:11:36.564Z,6.18
2022-08-02T05:14:05.372Z,6.47
2022-08-02T05:16:33.550Z,6.38
2022-08-02T05:19:02.291Z,11.25
2022-08-02T05:21:32.735Z,10.30
2022-08-02T05:24:00.694Z,11.30
2022-08-02T05:26:28.701Z,8.77
2022-08-02T05:28:56.735Z,7.35
2022-08-02T05:31:24.912Z,8.50
2022-08-02T05:33:53.050Z,9.35
2022-08-02T05:36:21.601Z,8.35
2022-08-02T05:38:52.877Z,9.43
2022-08-02T05:41:27.693Z,8.43
2022-08-02T05:43:55.720Z,9.82
2022-08-02T05:46:24.318Z,10.75
2022-08-02T05:48:52.293Z,9.70
2022-08-02T05:51:24.545Z,8.93
2022-08-02T05:53:59.373Z,9.13
2022-08-02T05:56:35.849Z,9.95
2022-08-02T05:59:06.183Z,9.50
2022-08-02T06:01:36.858Z,8.40
2022-08-02T06:04:08.435Z,11.05
2022-08-02T06:06:37.307Z,11.23
2022-08-02T06:09:13.949Z,10.27
2022-08-02T06:12:01.911Z,11.30
2022-08-02T06:14:40.923Z,12.70
2022-08-02T06:17:09.678Z,14.15
2022-08-02T06:19:51.510Z,15.40
2022-08-02T06:22:33.962Z,17.27
2022-08-02T06:25:48.302Z,13.10
2022-08-02T06:28:10.005Z,16.42
2022-08-02T06:30:40.827Z,13.77
2022-08-02T06:33:09.013Z,17.10
2022-08-02T06:35:45.325Z,15.75
2022-08-02T06:38:19.982Z,14.05
2022-08-02T06:40:54.631Z,17.48
2022-08-02T06:43:28.324Z,16.63
2022-08-02T06:45:56.348Z,19.23
2022-08-02T06:48:44.389Z,17.80
2022-08-02T06:51:12.662Z,22.50
2022-08-02T06:53:41.396Z,18.70
2022-08-02T06:56:11.441Z,21.80
2022-08-02T06:58:41.047Z,21.85
2022-08-02T07:01:09.893Z,24.58
2022-08-02T07:03:39.179Z,30.13
2022-08-02T07:06:09.817Z,34.67
2022-08-02T07:08:39.035Z,37.72
2022-08-02T07:11:07.811Z,41.55
2022-08-02T07:13:40.011Z,43.28
2022-08-02T07:16:11.604Z,45.75
2022-08-02T07:18:39.729Z,46.35
2022-08-02T07:21:08.707Z,46.75
2022-08-02T07:23:37.322Z,50.25
2022-08-02T07:26:06.036Z,48.40
2022-08-02T07:28:34.046Z,46.47
2022-08-02T07:31:03.485Z,40.40
2022-08-02T07:33:38.823Z,37.20
2022-08-02T07:36:09.875Z,35.83
2022-08-02T07:38:50.527Z,31.73
2022-08-02T07:41:18.706Z,30.48
2022-08-02T07:43:47.180Z,33.00
2022-08-02T07:46:16.587Z,32.83
2022-08-02T07:48:44.558Z,29.13
2022-08-02T07:51:17.138Z,20.75
2022-08-02T07:53:50.787Z,17.02
2022-08-02T07:56:19.890Z,16.80
2022-08-02T07:58:47.849Z,20.20
2022-08-02T08:01:17.403Z,17.08
2022-08-02T08:03:45.792Z,15.60
2022-08-02T08:06:13.758Z,17.27
2022-08-02T08:08:41.676Z,17.35
2022-08-02T08:11:09.695Z,15.20
2022-08-02T08:13:37.730Z,13.52
2022-08-02T08:16:06.421Z,13.63
2022-08-02T08:18:36.429Z,13.45
2022-08-02T08:21:04.701Z,17.05
2022-08-02T08:23:32.735Z,12.43
2022-08-02T08:26:00.760Z,15.05
2022-08-02T08:28:31.923Z,15.75
2022-08-02T08:31:00.112Z,13.48
2022-08-02T08:33:28.200Z,13.85
2022-08-02T08:35:58.176Z,12.10
2022-08-02T08:38:26.209Z,11.90
2022-08-02T08:40:56.770Z,11.70
2022-08-02T08:43:30.172Z,11.23
2022-08-02T08:45:58.910Z,12.40
2022-08-02T08:48:31.213Z,10.43
2022-08-02T08:51:06.140Z,10.15
2022-08-02T08:53:40.362Z,11.82
2022-08-02T08:56:14.092Z,11.52
2022-08-02T08:58:44.848Z,10.85
2022-08-02T09:01:16.797Z,10.02
2022-08-02T09:03:47.082Z,9.27
2022-08-02T09:06:16.946Z,10.18
2022-08-02T09:08:45.062Z,12.07
2022-08-02T09:11:17.705Z,7.70
2022-08-02T09:13:53.589Z,9.10
2022-08-02T09:16:30.361Z,8.98
2022-08-02T09:18:59.453Z,8.63
2022-08-02T09:21:38.321Z,8.68
2022-08-02T09:24:17.594Z,10.90
2022-08-02T09:26:46.067Z,12.10
2022-08-02T09:29:14.822Z,11.25
2022-08-02T09:31:49.359Z,12.68
2022-08-02T09:34:19.886Z,9.43
2022-08-02T09:36:54.375Z,13.18
2022-08-02T09:39:23.957Z,10.07
2022-08-02T09:41:52.126Z,9.75
2022-08-02T09:44:20.590Z,13.70
2022-08-02T09:46:48.597Z,10.68
2022-08-02T09:49:20.560Z,10.15
2022-08-02T09:51:54.262Z,9.55
2022-08-02T09:54:24.535Z,11.55
2022-08-02T09:56:54.862Z,13.32
2022-08-02T09:59:24.816Z,16.20
2022-08-02T10:02:01.829Z,11.82
2022-08-02T10:04:34.325Z,11.50
2022-08-02T10:07:24.001Z,10.15
2022-08-02T10:09:55.466Z,11.73
2022-08-02T10:12:24.796Z,12.52
2022-08-02T10:14:53.337Z,11.73
2022-08-02T10:17:22.656Z,11.00
2022-08-02T10:20:01.873Z,13.38
2022-08-02T10:22:34.810Z,13.63
2022-08-02T10:25:04.969Z,12.98
2022-08-02T10:27:49.305Z,12.70
2022-08-02T10:30:24.643Z,12.75
2022-08-02T10:32:59.368Z,10.18
2022-08-02T10:35:28.259Z,10.52
2022-08-02T10:38:03.855Z,13.00
2022-08-02T10:40:46.042Z,9.25
2022-08-02T10:43:15.222Z,12.05
2022-08-02T10:45:46.735Z,13.02
2022-08-02T10:48:17.070Z,12.15
2022-08-02T10:50:55.254Z,19.05
2022-08-02T10:53:29.749Z,9.98
2022-08-02T10:55:59.588Z,9.57
2022-08-02T10:58:30.454Z,9.98
2022-08-02T11:00:59.934Z,10.43
2022-08-02T11:03:42.471Z,17.52
2022-08-02T11:06:24.646Z,9.20
2022-08-02T11:09:32.876Z,10.55
2022-08-02T11:12:03.906Z,10.32
2022-08-02T11:14:33.612Z,10.35
2022-08-02T11:17:15.724Z,10.93
2022-08-02T11:20:18.753Z,13.90
2022-08-02T11:22:48.522Z,12.50
2022-08-02T11:26:02.584Z,10.60
2022-08-02T11:28:26.104Z,8.80
2022-08-02T11:31:02.623Z,12.05
2022-08-02T11:33:33.309Z,11.52
2022-08-02T11:36:06.924Z,9.70
2022-08-02T11:38:35.078Z,11.30
2022-08-02T11:41:09.626Z,12.50
2022-08-02T11:43:39.420Z,10.45
2022-08-02T11:46:14.424Z,9.80
2022-08-02T11:48:43.919Z,10.73
2022-08-02T11:51:14.694Z,8.07
2022-08-02T11:53:44.573Z,10.45
2022-08-02T11:56:21.652Z,11.07
2022-08-02T11:59:04.117Z,8.05
2022-08-02T12:01:36.886Z,9.07
2022-08-02T12:04:18.108Z,7.05
2022-08-02T12:06:54.867Z,7.75
2022-08-02T12:09:24.357Z,9.52
2022-08-02T12:11:53.833Z,7.03
2022-08-02T12:14:22.219Z,7.13
2022-08-02T12:17:08.055Z,7.30
2022-08-02T12:19:37.101Z,6.65
2022-08-02T12:22:10.883Z,4.10
2022-08-02T12:24:39.962Z,6.45
2022-08-02T12:27:10.461Z,11.75
2022-08-02T12:29:58.290Z,5.80
2022-08-02T12:32:27.763Z,7.45
2022-08-02T12:35:07.765Z,8.68
2022-08-02T12:37:37.096Z,7.25
2022-08-02T12:40:25.499Z,5.63
2022-08-02T12:42:58.563Z,6.70
2022-08-02T12:45:41.256Z,7.55
2022-08-02T12:48:10.953Z,5.95
2022-08-02T12:50:39.581Z,6.95
2022-08-02T12:53:09.884Z,7.90
2022-08-02T12:56:00.912Z,3.03
2022-08-02T12:58:47.311Z,8.55
2022-08-02T13:01:22.656Z,10.18
2022-08-02T13:04:11.803Z,6.20
2022-08-02T13:06:44.089Z,6.68
2022-08-02T13:09:14.983Z,11.70
2022-08-02T13:11:43.987Z,7.63
2022-08-02T13:14:15.349Z,9.23
2022-08-02T13:16:44.953Z,8.90
2022-08-02T13:19:15.524Z,8.27
2022-08-02T13:22:01.925Z,8.00
2022-08-02T13:24:40.991Z,9.38
2022-08-02T13:27:21.907Z,10.38
2022-08-02T13:29:52.255Z,12.02
2022-08-02T13:32:21.103Z,9.02
2022-08-02T13:34:49.026Z,8.77
2022-08-02T13:37:17.516Z,8.00
2022-08-02T13:40:05.566Z,11.75
2022-08-02T13:42:35.468Z,7.43
2022-08-02T13:45:12.067Z,6.72
2022-08-02T13:48:03.922Z,8.48
2022-08-02T13:50:31.432Z,6.53
2022-08-02T13:52:59.385Z,7.63
2022-08-02T13:55:28.167Z,10.02
2022-08-02T13:57:56.333Z,11.57
2022-08-02T14:00:35.429Z,8.57
2022-08-02T14:03:05.483Z,8.80
2022-08-02T14:05:39.476Z,9.85
2022-08-02T14:08:16.903Z,11.95
2022-08-02T14:10:45.506Z,11.90
2022-08-02T14:13:13.528Z,11.25
2022-08-02T14:15:43.022Z,8.90
2022-08-02T14:18:11.191Z,11.25
2022-08-02T14:20:39.088Z,13.23
2022-08-02T14:23:07.189Z,9.38
2022-08-02T14:25:35.326Z,9.15
2022-08-02T14:28:03.570Z,9.75
2022-08-02T14:30:31.763Z,8.50
2022-08-02T14:33:01.287Z,9.07
2022-08-02T14:35:29.278Z,9.68
2022-08-02T14:37:57.302Z,12.80
2022-08-02T14:40:30.709Z,13.85
2022-08-02T14:43:00.614Z,8.00
2022-08-02T14:45:39.809Z,9.20
2022-08-02T14:48:12.535Z,9.07
2022-08-02T14:50:41.020Z,10.60
2022-08-02T14:53:12.189Z,7.95
2022-08-02T14:55:41.966Z,11.02
2022-08-02T14:58:10.456Z,9.10
2022-08-02T15:00:40.892Z,11.23
2022-08-02T15:03:11.141Z,10.07
2022-08-02T15:05:39.136Z,8.55
2022-08-02T15:08:07.454Z,9.57
2022-08-02T15:10:35.454Z,8.30
2022-08-02T15:13:03.489Z,12.00
2022-08-02T15:15:31.474Z,10.05
2022-08-02T15:18:00.249Z,10.88
2022-08-02T15:20:29.877Z,9.20
2022-08-02T15:23:00.555Z,9.75
2022-08-02T15:25:28.510Z,10.55
2022-08-02T15:27:56.433Z,8.98
2022-08-02T15:30:24.545Z,11.25
2022-08-02T15:32:53.850Z,8.18
2022-08-02T15:35:21.988Z,10.98
2022-08-02T15:37:51.416Z,5.07
2022-08-02T15:40:19.558Z,6.57
2022-08-02T15:42:47.581Z,8.15
2022-08-02T15:45:15.966Z,7.57
2022-08-02T15:47:50.305Z,6.82
2022-08-02T15:50:19.437Z,9.60
2022-08-02T15:52:47.307Z,8.57
2022-08-02T15:55:16.971Z,7.60
2022-08-02T15:57:44.992Z,9.13
2022-08-02T16:00:18.096Z,9.50
2022-08-02T16:02:47.848Z,11.57
2022-08-02T16:05:17.811Z,6.72
2022-08-02T16:07:49.356Z,10.05
2022-08-02T16:10:19.151Z,12.88
2022-08-02T16:12:47.137Z,9.13
2022-08-02T16:15:15.194Z,11.13
2022-08-02T16:17:48.665Z,15.27
2022-08-02T16:20:23.009Z,12.13
2022-08-02T16:22:50.901Z,11.88
2022-08-02T16:25:20.417Z,10.75
2022-08-02T16:28:00.200Z,12.88
2022-08-02T16:30:35.930Z,10.63
2022-08-02T16:33:04.117Z,12.95
2022-08-02T16:35:32.203Z,14.27
2022-08-02T16:38:02.238Z,13.23
2022-08-02T16:40:34.248Z,8.93
2022-08-02T16:43:02.901Z,12.50
2022-08-02T16:45:37.114Z,10.48
2022-08-02T16:48:06.949Z,10.02
2022-08-02T16:50:37.861Z,12.93
2022-08-02T16:53:07.959Z,9.95
2022-08-02T16:55:37.939Z,8.15
2022-08-02T16:58:09.746Z,8.80
2022-08-02T17:00:37.955Z,9.93
2022-08-02T17:03:13.329Z,13.50
2022-08-02T17:05:56.362Z,11.73
2022-08-02T17:08:31.776Z,11.07
2022-08-02T17:11:03.547Z,12.80
2022-08-02T17:13:32.293Z,10.13
2022-08-02T17:16:20.645Z,9.93
2022-08-02T17:18:50.441Z,7.82
2022-08-02T17:21:18.526Z,8.38
2022-08-02T17:24:02.778Z,9.32
2022-08-02T17:26:37.489Z,7.10
2022-08-02T17:29:16.425Z,10.02
2022-08-02T17:32:05.816Z,8.40
2022-08-02T17:34:34.767Z,5.75
2022-08-02T17:37:05.633Z,7.75
2022-08-02T17:39:44.225Z,8.88
2022-08-02T17:42:23.596Z,5.00
2022-08-02T17:44:52.075Z,8.52
2022-08-02T17:47:20.437Z,7.07
2022-08-02T17:49:50.001Z,6.18
2022-08-02T17:52:50.472Z,4.82
2022-08-02T17:55:14.550Z,6.47
2022-08-02T17:57:57.193Z,11.55
2022-08-02T18:03:20.774Z,8.38
2022-08-02T18:05:55.042Z,5.35
2022-08-02T18:08:24.222Z,6.70
2022-08-02T18:10:55.881Z,10.05
2022-08-02T18:13:26.113Z,10.27
2022-08-02T18:16:01.365Z,9.02
2022-08-02T18:18:30.437Z,7.35
2022-08-02T18:21:15.953Z,8.77
2022-08-02T18:23:48.600Z,9.48
2022-08-02T18:26:17.948Z,6.38
2022-08-02T18:28:53.018Z,9.95
2022-08-02T18:31:22.788Z,8.57
2022-08-02T18:34:01.509Z,10.52
2022-08-02T18:36:31.565Z,10.00
2022-08-02T18:39:00.368Z,10.90
2022-08-02T18:41:38.818Z,9.82
2022-08-02T18:44:10.783Z,8.55
2022-08-02T18:46:44.155Z,5.80
2022-08-02T18:49:15.084Z,10.25
2022-08-02T18:51:43.711Z,5.43
2022-08-02T18:54:11.780Z,5.43
2022-08-02T18:56:40.142Z,5.45
2022-08-02T18:59:10.653Z,3.58
2022-08-02T19:01:46.804Z,5.40
2022-08-02T19:04:27.516Z,5.70
2022-08-02T19:07:07.427Z,5.95
2022-08-02T19:09:40.038Z,4.18
2022-08-02T19:12:13.105Z,2.28
2022-08-02T19:14:42.579Z,4.75
2022-08-02T19:17:54.243Z,6.65
2022-08-02T19:19:58.761Z,7.22
2022-08-02T19:22:29.924Z,8.60
2022-08-02T19:25:01.248Z,6.90
2022-08-02T19:27:32.727Z,5.65
2022-08-02T19:30:04.106Z,7.30
2022-08-02T19:32:40.493Z,6.78
2022-08-02T19:35:19.251Z,7.50
2022-08-02T19:38:06.363Z,7.20
2022-08-02T19:40:34.517Z,7.80
2022-08-02T19:44:21.604Z,6.47
2022-08-02T19:45:57.633Z,7.28
2022-08-02T19:48:27.056Z,5.15
2022-08-02T19:50:59.538Z,7.55
2022-08-02T19:56:25.766Z,5.55
2022-08-02T19:58:55.685Z,7.75
2022-08-02T20:01:36.891Z,8.60
2022-08-02T20:04:06.992Z,5.57
2022-08-02T20:06:35.100Z,5.00
2022-08-02T20:09:04.964Z,4.50
2022-08-02T20:11:35.057Z,6.57
2022-08-02T20:14:07.070Z,5.20
2022-08-02T20:16:39.411Z,4.45
2022-08-02T20:19:09.642Z,6.45
2022-08-02T20:21:42.037Z,5.82
2022-08-02T20:24:13.576Z,5.75
2022-08-02T20:26:47.019Z,9.45
2022-08-02T20:29:43.156Z,7.97
2022-08-02T20:32:08.030Z,7.85
2022-08-02T20:34:36.584Z,6.60
2022-08-02T20:38:00.171Z,11.27
2022-08-02T20:39:55.277Z,8.60
2022-08-02T20:42:26.999Z,8.75
2022-08-02T20:44:57.584Z,8.38
2022-08-02T20:47:38.866Z,8.63
2022-08-02T20:50:31.453Z,10.80
2022-08-02T20:53:00.098Z,12.25
2022-08-02T20:55:31.641Z,12.45
2022-08-02T20:58:02.121Z,11.35
2022-08-02T21:00:49.426Z,12.50
2022-08-02T21:03:21.446Z,12.57
2022-08-02T21:05:55.846Z,11.93
2022-08-02T21:08:24.592Z,13.43
2022-08-02T21:10:53.400Z,14.43
2022-08-02T21:13:26.121Z,14.70
2022-08-02T21:15:56.552Z,15.85
2022-08-02T21:18:44.476Z,15.38
2022-08-02T21:21:14.777Z,17.40
2022-08-02T21:26:32.931Z,18.65
2022-08-02T21:29:03.919Z,19.98
2022-08-02T21:31:35.518Z,18.83
2022-08-02T21:34:19.221Z,19.45
2022-08-02T21:36:50.805Z,18.85
2022-08-02T21:39:19.219Z,20.02
2022-08-02T21:41:48.760Z,21.10
2022-08-02T21:44:17.970Z,22.30
2022-08-02T21:46:49.413Z,20.95
2022-08-02T21:49:20.210Z,20.92
2022-08-02T21:51:49.652Z,20.70
2022-08-02T21:54:20.227Z,20.75
2022-08-02T21:56:52.024Z,20.60
2022-08-02T21:59:26.182Z,21.10
2022-08-02T22:01:56.936Z,19.67
2022-08-02T22:04:47.604Z,19.02
2022-08-02T22:07:17.189Z,19.88
2022-08-02T22:09:45.820Z,19.65
2022-08-02T22:12:17.555Z,20.02
2022-08-02T22:14:54.751Z,20.55
2022-08-02T22:17:50.485Z,20.25
2022-08-02T22:20:19.842Z,20.70
2022-08-02T22:22:50.370Z,21.05
2022-08-02T22:25:26.599Z,20.98
2022-08-02T22:28:38.756Z,20.48
2022-08-02T22:30:52.880Z,21.98
2022-08-02T22:33:42.453Z,20.70
2022-08-02T22:36:17.277Z,20.83
2022-08-02T22:38:46.113Z,21.38
2022-08-02T22:41:14.900Z,20.60
2022-08-02T22:43:43.340Z,21.67
2022-08-02T22:46:15.459Z,21.92
2022-08-02T22:48:45.367Z,21.17
2022-08-02T22:51:14.113Z,20.45
2022-08-02T22:53:45.602Z,24.75
2022-08-02T22:56:15.416Z,22.08
2022-08-02T22:58:49.822Z,7.15
2022-08-02T22:59:05.946Z,8.20
2022-08-02T22:59:12.142Z,17.20
2022-08-02T23:01:32.039Z,21.05
2022-08-02T23:04:00.267Z,23.05
2022-08-02T23:06:28.201Z,22.35
2022-08-02T23:08:57.740Z,21.27
2022-08-02T23:11:25.841Z,25.40
2022-08-02T23:13:53.829Z,24.35
2022-08-02T23:16:39.593Z,23.63
2022-08-02T23:19:25.010Z,22.85
2022-08-02T23:22:01.667Z,21.75
2022-08-02T23:24:33.891Z,22.52
2022-08-02T23:27:02.105Z,21.13
2022-08-02T23:29:30.099Z,25.30
2022-08-02T23:31:58.977Z,21.63
2022-08-02T23:34:27.403Z,20.80
2022-08-02T23:36:55.305Z,21.23
2022-08-02T23:39:23.456Z,20.90
2022-08-02T23:41:54.790Z,21.30
2022-08-02T23:44:23.610Z,21.33
2022-08-02T23:46:52.172Z,20.17
2022-08-02T23:49:20.573Z,21.67
2022-08-02T23:51:49.024Z,22.98
2022-08-02T23:54:17.854Z,22.20
2022-08-02T23:56:46.128Z,22.92
2022-08-02T23:59:16.139Z,21.50
